sensor_id;sensor_type;location;lat;lon;timestamp;P1;durP1;ratioP1;P2;durP2;ratioP2
38425;SDS011;24210;51.460;6.148;2024-02-21T00:00:10;27.70;;;10.97;;
38425;SDS011;24210;51.460;6.148;2024-02-21T00:02:36;28.43;;;11.97;;
38425;SDS011;24210;51.460;6.148;2024-02-21T00:05:02;32.70;;;15.20;;
38425;SDS011;24210;51.460;6.148;2024-02-21T00:07:27;27.63;;;12.27;;
38425;SDS011;24210;51.460;6.148;2024-02-21T00:09:53;20.23;;;11.43;;
38425;SDS011;24210;51.460;6.148;2024-02-21T00:12:18;27.70;;;14.10;;
38425;SDS011;24210;51.460;6.148;2024-02-21T00:14:43;22.33;;;10.27;;
38425;SDS011;24210;51.460;6.148;2024-02-21T00:17:08;21.00;;;10.20;;
38425;SDS011;24210;51.460;6.148;2024-02-21T00:19:34;23.53;;;11.50;;
38425;SDS011;24210;51.460;6.148;2024-02-21T00:21:59;29.60;;;11.07;;
38425;SDS011;24210;51.460;6.148;2024-02-21T00:24:24;21.73;;;11.47;;
38425;SDS011;24210;51.460;6.148;2024-02-21T00:26:49;28.30;;;11.67;;
38425;SDS011;24210;51.460;6.148;2024-02-21T00:29:15;19.57;;;9.53;;
38425;SDS011;24210;51.460;6.148;2024-02-21T00:31:40;21.03;;;10.30;;
38425;SDS011;24210;51.460;6.148;2024-02-21T00:34:05;20.20;;;11.00;;
38425;SDS011;24210;51.460;6.148;2024-02-21T00:36:30;20.27;;;11.87;;
38425;SDS011;24210;51.460;6.148;2024-02-21T00:38:55;21.50;;;10.67;;
38425;SDS011;24210;51.460;6.148;2024-02-21T00:41:21;29.03;;;11.20;;
38425;SDS011;24210;51.460;6.148;2024-02-21T00:43:46;28.70;;;14.23;;
38425;SDS011;24210;51.460;6.148;2024-02-21T00:46:13;19.40;;;9.48;;
38425;SDS011;24210;51.460;6.148;2024-02-21T00:48:38;25.03;;;11.97;;
38425;SDS011;24210;51.460;6.148;2024-02-21T00:51:04;25.37;;;11.50;;
38425;SDS011;24210;51.460;6.148;2024-02-21T00:53:29;31.27;;;12.60;;
38425;SDS011;24210;51.460;6.148;2024-02-21T00:55:54;29.07;;;12.97;;
38425;SDS011;24210;51.460;6.148;2024-02-21T00:58:21;22.77;;;11.55;;
38425;SDS011;24210;51.460;6.148;2024-02-21T01:00:46;25.30;;;11.60;;
38425;SDS011;24210;51.460;6.148;2024-02-21T01:03:12;21.47;;;11.00;;
38425;SDS011;24210;51.460;6.148;2024-02-21T01:05:37;25.87;;;11.23;;
38425;SDS011;24210;51.460;6.148;2024-02-21T01:08:02;23.23;;;11.10;;
38425;SDS011;24210;51.460;6.148;2024-02-21T01:10:27;20.43;;;11.03;;
38425;SDS011;24210;51.460;6.148;2024-02-21T01:12:53;19.80;;;9.53;;
38425;SDS011;24210;51.460;6.148;2024-02-21T01:15:18;19.60;;;10.13;;
38425;SDS011;24210;51.460;6.148;2024-02-21T01:17:43;16.43;;;11.23;;
38425;SDS011;24210;51.460;6.148;2024-02-21T01:20:08;22.50;;;11.70;;
38425;SDS011;24210;51.460;6.148;2024-02-21T01:22:34;19.17;;;10.40;;
38425;SDS011;24210;51.460;6.148;2024-02-21T01:24:59;17.43;;;10.17;;
38425;SDS011;24210;51.460;6.148;2024-02-21T01:27:24;16.97;;;9.90;;
38425;SDS011;24210;51.460;6.148;2024-02-21T01:29:49;16.57;;;10.23;;
38425;SDS011;24210;51.460;6.148;2024-02-21T01:32:15;24.90;;;11.53;;
38425;SDS011;24210;51.460;6.148;2024-02-21T01:34:40;20.33;;;10.57;;
38425;SDS011;24210;51.460;6.148;2024-02-21T01:37:05;18.33;;;10.33;;
38425;SDS011;24210;51.460;6.148;2024-02-21T01:39:32;19.60;;;10.40;;
38425;SDS011;24210;51.460;6.148;2024-02-21T01:41:57;18.73;;;9.83;;
38425;SDS011;24210;51.460;6.148;2024-02-21T01:44:23;14.67;;;9.53;;
38425;SDS011;24210;51.460;6.148;2024-02-21T01:46:48;15.43;;;9.43;;
38425;SDS011;24210;51.460;6.148;2024-02-21T01:49:14;17.43;;;10.17;;
38425;SDS011;24210;51.460;6.148;2024-02-21T01:51:39;15.87;;;8.70;;
38425;SDS011;24210;51.460;6.148;2024-02-21T01:54:05;16.97;;;9.93;;
38425;SDS011;24210;51.460;6.148;2024-02-21T01:56:30;14.33;;;7.30;;
38425;SDS011;24210;51.460;6.148;2024-02-21T01:58:56;26.17;;;10.97;;
38425;SDS011;24210;51.460;6.148;2024-02-21T02:01:21;18.83;;;7.50;;
38425;SDS011;24210;51.460;6.148;2024-02-21T02:03:46;15.63;;;8.60;;
38425;SDS011;24210;51.460;6.148;2024-02-21T02:06:12;18.57;;;8.70;;
38425;SDS011;24210;51.460;6.148;2024-02-21T02:08:37;17.73;;;8.77;;
38425;SDS011;24210;51.460;6.148;2024-02-21T02:11:02;16.23;;;8.83;;
38425;SDS011;24210;51.460;6.148;2024-02-21T02:13:28;17.87;;;8.13;;
38425;SDS011;24210;51.460;6.148;2024-02-21T02:15:53;16.67;;;9.80;;
38425;SDS011;24210;51.460;6.148;2024-02-21T02:18:19;18.10;;;8.53;;
38425;SDS011;24210;51.460;6.148;2024-02-21T02:20:45;15.87;;;7.80;;
38425;SDS011;24210;51.460;6.148;2024-02-21T02:25:51;18.65;;;10.30;;
38425;SDS011;24210;51.460;6.148;2024-02-21T02:28:17;14.15;;;9.32;;
38425;SDS011;24210;51.460;6.148;2024-02-21T02:30:42;19.87;;;9.63;;
38425;SDS011;24210;51.460;6.148;2024-02-21T02:33:08;22.07;;;11.03;;
38425;SDS011;24210;51.460;6.148;2024-02-21T02:35:33;19.93;;;9.47;;
38425;SDS011;24210;51.460;6.148;2024-02-21T02:38:00;15.80;;;9.10;;
38425;SDS011;24210;51.460;6.148;2024-02-21T02:40:25;18.63;;;9.47;;
38425;SDS011;24210;51.460;6.148;2024-02-21T02:42:51;24.77;;;9.17;;
38425;SDS011;24210;51.460;6.148;2024-02-21T02:45:16;18.00;;;10.87;;
38425;SDS011;24210;51.460;6.148;2024-02-21T02:47:42;17.57;;;8.67;;
38425;SDS011;24210;51.460;6.148;2024-02-21T02:52:34;16.63;;;9.38;;
38425;SDS011;24210;51.460;6.148;2024-02-21T02:54:59;15.03;;;7.87;;
38425;SDS011;24210;51.460;6.148;2024-02-21T02:57:24;23.53;;;9.87;;
38425;SDS011;24210;51.460;6.148;2024-02-21T02:59:52;20.37;;;10.83;;
38425;SDS011;24210;51.460;6.148;2024-02-21T03:02:17;17.05;;;9.13;;
38425;SDS011;24210;51.460;6.148;2024-02-21T03:04:43;13.27;;;7.83;;
38425;SDS011;24210;51.460;6.148;2024-02-21T03:07:08;14.90;;;9.23;;
38425;SDS011;24210;51.460;6.148;2024-02-21T03:09:33;18.03;;;7.87;;
38425;SDS011;24210;51.460;6.148;2024-02-21T03:11:59;21.57;;;9.40;;
38425;SDS011;24210;51.460;6.148;2024-02-21T03:14:30;16.85;;;9.65;;
38425;SDS011;24210;51.460;6.148;2024-02-21T03:16:56;21.63;;;8.87;;
38425;SDS011;24210;51.460;6.148;2024-02-21T03:19:21;18.03;;;8.63;;
38425;SDS011;24210;51.460;6.148;2024-02-21T03:21:47;14.25;;;9.20;;
38425;SDS011;24210;51.460;6.148;2024-02-21T03:24:12;13.20;;;7.60;;
38425;SDS011;24210;51.460;6.148;2024-02-21T03:26:37;15.90;;;8.47;;
38425;SDS011;24210;51.460;6.148;2024-02-21T03:29:03;14.23;;;8.50;;
38425;SDS011;24210;51.460;6.148;2024-02-21T03:31:29;17.17;;;8.48;;
38425;SDS011;24210;51.460;6.148;2024-02-21T03:33:54;16.97;;;9.00;;
38425;SDS011;24210;51.460;6.148;2024-02-21T03:36:19;19.30;;;9.60;;
38425;SDS011;24210;51.460;6.148;2024-02-21T03:38:44;13.37;;;7.83;;
38425;SDS011;24210;51.460;6.148;2024-02-21T03:41:10;21.47;;;10.50;;
38425;SDS011;24210;51.460;6.148;2024-02-21T03:43:37;20.93;;;10.23;;
38425;SDS011;24210;51.460;6.148;2024-02-21T03:46:02;15.80;;;8.20;;
38425;SDS011;24210;51.460;6.148;2024-02-21T03:48:27;20.27;;;9.77;;
38425;SDS011;24210;51.460;6.148;2024-02-21T03:50:52;17.43;;;8.47;;
38425;SDS011;24210;51.460;6.148;2024-02-21T03:53:18;15.90;;;9.03;;
38425;SDS011;24210;51.460;6.148;2024-02-21T03:55:43;20.67;;;10.67;;
38425;SDS011;24210;51.460;6.148;2024-02-21T03:58:09;15.47;;;6.40;;
38425;SDS011;24210;51.460;6.148;2024-02-21T04:00:34;14.63;;;7.40;;
38425;SDS011;24210;51.460;6.148;2024-02-21T04:02:59;13.63;;;8.10;;
38425;SDS011;24210;51.460;6.148;2024-02-21T04:05:24;19.30;;;8.20;;
38425;SDS011;24210;51.460;6.148;2024-02-21T04:07:49;16.17;;;8.83;;
38425;SDS011;24210;51.460;6.148;2024-02-21T04:10:16;18.52;;;9.20;;
38425;SDS011;24210;51.460;6.148;2024-02-21T04:12:41;15.23;;;8.23;;
38425;SDS011;24210;51.460;6.148;2024-02-21T04:15:06;15.33;;;7.30;;
38425;SDS011;24210;51.460;6.148;2024-02-21T04:17:32;11.80;;;7.83;;
38425;SDS011;24210;51.460;6.148;2024-02-21T04:20:01;15.50;;;7.27;;
38425;SDS011;24210;51.460;6.148;2024-02-21T04:22:30;13.38;;;7.55;;
38425;SDS011;24210;51.460;6.148;2024-02-21T04:24:55;14.57;;;8.00;;
38425;SDS011;24210;51.460;6.148;2024-02-21T04:27:20;15.33;;;8.57;;
38425;SDS011;24210;51.460;6.148;2024-02-21T04:29:45;10.43;;;6.00;;
38425;SDS011;24210;51.460;6.148;2024-02-21T04:32:10;15.53;;;6.43;;
38425;SDS011;24210;51.460;6.148;2024-02-21T04:34:36;13.20;;;7.17;;
38425;SDS011;24210;51.460;6.148;2024-02-21T04:37:01;19.03;;;8.00;;
38425;SDS011;24210;51.460;6.148;2024-02-21T04:39:26;14.40;;;6.10;;
38425;SDS011;24210;51.460;6.148;2024-02-21T04:41:51;22.47;;;8.03;;
38425;SDS011;24210;51.460;6.148;2024-02-21T04:44:17;12.70;;;5.70;;
38425;SDS011;24210;51.460;6.148;2024-02-21T04:46:42;18.77;;;8.07;;
38425;SDS011;24210;51.460;6.148;2024-02-21T04:49:08;14.73;;;7.47;;
38425;SDS011;24210;51.460;6.148;2024-02-21T04:51:33;18.37;;;7.87;;
38425;SDS011;24210;51.460;6.148;2024-02-21T04:53:58;15.83;;;5.63;;
38425;SDS011;24210;51.460;6.148;2024-02-21T04:56:23;15.00;;;6.87;;
38425;SDS011;24210;51.460;6.148;2024-02-21T04:58:49;20.48;;;7.88;;
38425;SDS011;24210;51.460;6.148;2024-02-21T05:01:14;12.53;;;6.93;;
38425;SDS011;24210;51.460;6.148;2024-02-21T05:03:40;11.37;;;6.73;;
38425;SDS011;24210;51.460;6.148;2024-02-21T05:06:05;11.03;;;6.57;;
38425;SDS011;24210;51.460;6.148;2024-02-21T05:08:30;15.03;;;7.40;;
38425;SDS011;24210;51.460;6.148;2024-02-21T05:10:55;12.43;;;6.37;;
38425;SDS011;24210;51.460;6.148;2024-02-21T05:13:21;14.23;;;6.60;;
38425;SDS011;24210;51.460;6.148;2024-02-21T05:15:46;11.83;;;7.13;;
38425;SDS011;24210;51.460;6.148;2024-02-21T05:18:11;15.53;;;7.53;;
38425;SDS011;24210;51.460;6.148;2024-02-21T05:20:36;11.90;;;7.30;;
38425;SDS011;24210;51.460;6.148;2024-02-21T05:23:01;14.97;;;6.90;;
38425;SDS011;24210;51.460;6.148;2024-02-21T05:25:27;14.07;;;6.47;;
38425;SDS011;24210;51.460;6.148;2024-02-21T05:27:52;11.93;;;7.47;;
38425;SDS011;24210;51.460;6.148;2024-02-21T05:30:20;13.43;;;6.25;;
38425;SDS011;24210;51.460;6.148;2024-02-21T05:32:46;18.07;;;7.90;;
38425;SDS011;24210;51.460;6.148;2024-02-21T05:35:11;15.70;;;6.80;;
38425;SDS011;24210;51.460;6.148;2024-02-21T05:37:36;18.33;;;7.37;;
38425;SDS011;24210;51.460;6.148;2024-02-21T05:40:02;15.90;;;6.57;;
38425;SDS011;24210;51.460;6.148;2024-02-21T05:42:27;15.47;;;6.87;;
38425;SDS011;24210;51.460;6.148;2024-02-21T05:44:52;16.63;;;7.47;;
38425;SDS011;24210;51.460;6.148;2024-02-21T05:47:17;19.23;;;7.60;;
38425;SDS011;24210;51.460;6.148;2024-02-21T05:49:45;14.05;;;6.95;;
38425;SDS011;24210;51.460;6.148;2024-02-21T05:52:10;12.40;;;7.27;;
38425;SDS011;24210;51.460;6.148;2024-02-21T05:54:39;11.23;;;7.67;;
38425;SDS011;24210;51.460;6.148;2024-02-21T05:57:04;10.65;;;7.13;;
38425;SDS011;24210;51.460;6.148;2024-02-21T05:59:30;16.33;;;8.10;;
38425;SDS011;24210;51.460;6.148;2024-02-21T06:01:58;16.20;;;7.27;;
38425;SDS011;24210;51.460;6.148;2024-02-21T06:04:23;18.70;;;9.27;;
38425;SDS011;24210;51.460;6.148;2024-02-21T06:06:49;17.67;;;7.63;;
38425;SDS011;24210;51.460;6.148;2024-02-21T06:09:14;15.73;;;6.87;;
38425;SDS011;24210;51.460;6.148;2024-02-21T06:11:39;22.03;;;9.40;;
38425;SDS011;24210;51.460;6.148;2024-02-21T06:14:04;16.93;;;8.00;;
38425;SDS011;24210;51.460;6.148;2024-02-21T06:16:29;14.47;;;7.03;;
38425;SDS011;24210;51.460;6.148;2024-02-21T06:18:55;15.80;;;8.23;;
38425;SDS011;24210;51.460;6.148;2024-02-21T06:21:20;19.57;;;7.97;;
38425;SDS011;24210;51.460;6.148;2024-02-21T06:23:45;15.47;;;6.97;;
38425;SDS011;24210;51.460;6.148;2024-02-21T06:26:10;21.07;;;7.67;;
38425;SDS011;24210;51.460;6.148;2024-02-21T06:28:36;15.77;;;7.67;;
38425;SDS011;24210;51.460;6.148;2024-02-21T06:31:02;12.43;;;7.30;;
38425;SDS011;24210;51.460;6.148;2024-02-21T06:33:27;24.37;;;8.63;;
38425;SDS011;24210;51.460;6.148;2024-02-21T06:35:52;16.93;;;8.47;;
38425;SDS011;24210;51.460;6.148;2024-02-21T06:38:20;15.50;;;7.00;;
38425;SDS011;24210;51.460;6.148;2024-02-21T06:40:46;16.97;;;6.83;;
38425;SDS011;24210;51.460;6.148;2024-02-21T06:43:16;14.27;;;6.82;;
38425;SDS011;24210;51.460;6.148;2024-02-21T06:45:41;14.50;;;7.95;;
38425;SDS011;24210;51.460;6.148;2024-02-21T06:48:07;15.93;;;7.57;;
38425;SDS011;24210;51.460;6.148;2024-02-21T06:50:33;18.47;;;7.87;;
38425;SDS011;24210;51.460;6.148;2024-02-21T06:52:58;11.57;;;6.50;;
38425;SDS011;24210;51.460;6.148;2024-02-21T06:55:23;12.73;;;6.60;;
38425;SDS011;24210;51.460;6.148;2024-02-21T06:57:48;15.83;;;6.93;;
38425;SDS011;24210;51.460;6.148;2024-02-21T07:00:14;18.73;;;7.80;;
38425;SDS011;24210;51.460;6.148;2024-02-21T07:02:39;17.87;;;7.57;;
38425;SDS011;24210;51.460;6.148;2024-02-21T07:05:04;17.50;;;7.07;;
38425;SDS011;24210;51.460;6.148;2024-02-21T07:07:30;16.03;;;7.10;;
38425;SDS011;24210;51.460;6.148;2024-02-21T07:09:55;15.67;;;7.40;;
38425;SDS011;24210;51.460;6.148;2024-02-21T07:12:20;18.17;;;7.60;;
38425;SDS011;24210;51.460;6.148;2024-02-21T07:14:45;15.23;;;7.67;;
38425;SDS011;24210;51.460;6.148;2024-02-21T07:17:11;12.10;;;5.57;;
38425;SDS011;24210;51.460;6.148;2024-02-21T07:19:36;11.97;;;7.20;;
38425;SDS011;24210;51.460;6.148;2024-02-21T07:22:01;18.03;;;8.20;;
38425;SDS011;24210;51.460;6.148;2024-02-21T07:24:26;12.87;;;5.13;;
38425;SDS011;24210;51.460;6.148;2024-02-21T07:26:52;12.90;;;6.53;;
38425;SDS011;24210;51.460;6.148;2024-02-21T07:29:18;14.32;;;6.38;;
38425;SDS011;24210;51.460;6.148;2024-02-21T07:31:43;13.67;;;6.60;;
38425;SDS011;24210;51.460;6.148;2024-02-21T07:34:09;16.97;;;7.13;;
38425;SDS011;24210;51.460;6.148;2024-02-21T07:36:34;17.00;;;6.60;;
38425;SDS011;24210;51.460;6.148;2024-02-21T07:39:00;10.20;;;4.93;;
38425;SDS011;24210;51.460;6.148;2024-02-21T07:41:25;12.13;;;6.03;;
38425;SDS011;24210;51.460;6.148;2024-02-21T07:43:51;11.63;;;3.93;;
38425;SDS011;24210;51.460;6.148;2024-02-21T07:46:17;12.63;;;5.97;;
38425;SDS011;24210;51.460;6.148;2024-02-21T07:48:42;7.37;;;4.03;;
38425;SDS011;24210;51.460;6.148;2024-02-21T07:51:07;9.67;;;5.03;;
38425;SDS011;24210;51.460;6.148;2024-02-21T07:53:32;11.57;;;6.40;;
38425;SDS011;24210;51.460;6.148;2024-02-21T07:55:58;12.10;;;6.87;;
38425;SDS011;24210;51.460;6.148;2024-02-21T07:58:23;9.87;;;5.17;;
38425;SDS011;24210;51.460;6.148;2024-02-21T08:00:48;3.30;;;0.77;;
38425;SDS011;24210;51.460;6.148;2024-02-21T08:03:13;9.07;;;3.07;;
38425;SDS011;24210;51.460;6.148;2024-02-21T08:08:05;8.55;;;3.80;;
38425;SDS011;24210;51.460;6.148;2024-02-21T08:10:32;9.43;;;3.53;;
38425;SDS011;24210;51.460;6.148;2024-02-21T08:12:57;14.90;;;5.53;;
38425;SDS011;24210;51.460;6.148;2024-02-21T08:15:22;6.80;;;2.83;;
38425;SDS011;24210;51.460;6.148;2024-02-21T08:17:53;5.45;;;1.67;;
38425;SDS011;24210;51.460;6.148;2024-02-21T08:20:18;2.60;;;1.43;;
38425;SDS011;24210;51.460;6.148;2024-02-21T08:22:43;4.87;;;2.33;;
38425;SDS011;24210;51.460;6.148;2024-02-21T08:25:09;6.97;;;3.70;;
38425;SDS011;24210;51.460;6.148;2024-02-21T08:27:34;5.30;;;1.97;;
38425;SDS011;24210;51.460;6.148;2024-02-21T08:29:59;3.00;;;2.10;;
38425;SDS011;24210;51.460;6.148;2024-02-21T08:32:24;10.30;;;4.37;;
38425;SDS011;24210;51.460;6.148;2024-02-21T08:34:49;7.13;;;4.50;;
38425;SDS011;24210;51.460;6.148;2024-02-21T08:37:15;7.80;;;5.77;;
38425;SDS011;24210;51.460;6.148;2024-02-21T08:39:40;9.70;;;5.80;;
38425;SDS011;24210;51.460;6.148;2024-02-21T08:42:05;8.03;;;3.10;;
38425;SDS011;24210;51.460;6.148;2024-02-21T08:44:31;9.70;;;4.70;;
38425;SDS011;24210;51.460;6.148;2024-02-21T08:46:56;5.47;;;2.03;;
38425;SDS011;24210;51.460;6.148;2024-02-21T08:49:21;7.17;;;2.90;;
38425;SDS011;24210;51.460;6.148;2024-02-21T08:51:46;4.13;;;1.50;;
38425;SDS011;24210;51.460;6.148;2024-02-21T08:54:12;7.50;;;4.17;;
38425;SDS011;24210;51.460;6.148;2024-02-21T08:56:37;2.27;;;1.80;;
38425;SDS011;24210;51.460;6.148;2024-02-21T08:59:02;6.87;;;2.33;;
38425;SDS011;24210;51.460;6.148;2024-02-21T09:01:28;7.13;;;1.70;;
38425;SDS011;24210;51.460;6.148;2024-02-21T09:03:54;5.87;;;2.97;;
38425;SDS011;24210;51.460;6.148;2024-02-21T09:06:19;4.37;;;1.50;;
38425;SDS011;24210;51.460;6.148;2024-02-21T09:08:45;2.17;;;1.53;;
38425;SDS011;24210;51.460;6.148;2024-02-21T09:11:10;7.30;;;2.63;;
38425;SDS011;24210;51.460;6.148;2024-02-21T09:13:35;2.53;;;1.33;;
38425;SDS011;24210;51.460;6.148;2024-02-21T09:16:00;7.13;;;2.67;;
38425;SDS011;24210;51.460;6.148;2024-02-21T09:18:25;6.80;;;2.67;;
38425;SDS011;24210;51.460;6.148;2024-02-21T09:20:51;4.97;;;2.93;;
38425;SDS011;24210;51.460;6.148;2024-02-21T09:23:16;11.10;;;4.83;;
38425;SDS011;24210;51.460;6.148;2024-02-21T09:25:42;9.20;;;6.07;;
38425;SDS011;24210;51.460;6.148;2024-02-21T09:28:07;8.97;;;4.10;;
38425;SDS011;24210;51.460;6.148;2024-02-21T09:30:32;8.53;;;2.83;;
38425;SDS011;24210;51.460;6.148;2024-02-21T09:32:58;12.47;;;4.30;;
38425;SDS011;24210;51.460;6.148;2024-02-21T09:35:27;7.75;;;3.75;;
38425;SDS011;24210;51.460;6.148;2024-02-21T09:37:53;5.70;;;3.27;;
38425;SDS011;24210;51.460;6.148;2024-02-21T09:40:18;11.70;;;5.37;;
38425;SDS011;24210;51.460;6.148;2024-02-21T09:42:43;10.77;;;5.23;;
38425;SDS011;24210;51.460;6.148;2024-02-21T09:45:14;9.70;;;6.33;;
38425;SDS011;24210;51.460;6.148;2024-02-21T09:50:08;10.05;;;3.45;;
38425;SDS011;24210;51.460;6.148;2024-02-21T09:52:34;13.50;;;4.73;;
38425;SDS011;24210;51.460;6.148;2024-02-21T09:55:00;9.75;;;5.63;;
38425;SDS011;24210;51.460;6.148;2024-02-21T09:57:26;9.48;;;5.95;;
38425;SDS011;24210;51.460;6.148;2024-02-21T09:59:52;13.63;;;5.85;;
38425;SDS011;24210;51.460;6.148;2024-02-21T10:02:18;10.93;;;5.53;;
38425;SDS011;24210;51.460;6.148;2024-02-21T10:04:43;15.23;;;7.07;;
38425;SDS011;24210;51.460;6.148;2024-02-21T10:07:09;13.87;;;5.33;;
38425;SDS011;24210;51.460;6.148;2024-02-21T10:09:34;12.67;;;6.17;;
38425;SDS011;24210;51.460;6.148;2024-02-21T10:12:09;12.70;;;6.17;;
38425;SDS011;24210;51.460;6.148;2024-02-21T10:14:35;13.35;;;5.30;;
38425;SDS011;24210;51.460;6.148;2024-02-21T10:17:00;9.57;;;5.83;;
38425;SDS011;24210;51.460;6.148;2024-02-21T10:19:26;12.38;;;5.75;;
38425;SDS011;24210;51.460;6.148;2024-02-21T10:24:27;13.88;;;5.80;;
38425;SDS011;24210;51.460;6.148;2024-02-21T10:27:02;11.88;;;5.40;;
38425;SDS011;24210;51.460;6.148;2024-02-21T10:29:28;15.02;;;6.63;;
38425;SDS011;24210;51.460;6.148;2024-02-21T10:32:03;14.00;;;6.13;;
38425;SDS011;24210;51.460;6.148;2024-02-21T10:34:28;9.43;;;4.20;;
38425;SDS011;24210;51.460;6.148;2024-02-21T10:36:59;12.27;;;6.50;;
38425;SDS011;24210;51.460;6.148;2024-02-21T10:39:24;10.45;;;4.88;;
38425;SDS011;24210;51.460;6.148;2024-02-21T10:41:50;11.93;;;5.83;;
38425;SDS011;24210;51.460;6.148;2024-02-21T10:44:15;10.35;;;4.85;;
38425;SDS011;24210;51.460;6.148;2024-02-21T10:46:41;13.50;;;5.37;;
38425;SDS011;24210;51.460;6.148;2024-02-21T10:49:10;12.80;;;4.20;;
38425;SDS011;24210;51.460;6.148;2024-02-21T10:51:35;8.98;;;4.47;;
38425;SDS011;24210;51.460;6.148;2024-02-21T10:54:07;10.88;;;4.00;;
38425;SDS011;24210;51.460;6.148;2024-02-21T10:56:37;1.48;;;0.93;;
38425;SDS011;24210;51.460;6.148;2024-02-21T10:59:06;9.70;;;4.40;;
38425;SDS011;24210;51.460;6.148;2024-02-21T11:01:32;13.75;;;4.18;;
38425;SDS011;24210;51.460;6.148;2024-02-21T11:04:10;9.57;;;4.77;;
38425;SDS011;24210;51.460;6.148;2024-02-21T11:06:38;4.78;;;1.58;;
38425;SDS011;24210;51.460;6.148;2024-02-21T11:09:04;9.43;;;4.00;;
38425;SDS011;24210;51.460;6.148;2024-02-21T11:11:32;11.57;;;5.40;;
38425;SDS011;24210;51.460;6.148;2024-02-21T11:14:05;8.80;;;3.97;;
38425;SDS011;24210;51.460;6.148;2024-02-21T11:16:34;11.23;;;5.30;;
38425;SDS011;24210;51.460;6.148;2024-02-21T11:21:57;11.98;;;5.03;;
38425;SDS011;24210;51.460;6.148;2024-02-21T11:26:52;12.85;;;5.80;;
38425;SDS011;24210;51.460;6.148;2024-02-21T11:29:22;14.33;;;4.53;;
38425;SDS011;24210;51.460;6.148;2024-02-21T11:31:48;10.32;;;5.63;;
38425;SDS011;24210;51.460;6.148;2024-02-21T11:34:16;1.90;;;1.43;;
38425;SDS011;24210;51.460;6.148;2024-02-21T11:39:24;13.57;;;3.80;;
38425;SDS011;24210;51.460;6.148;2024-02-21T11:44:45;11.40;;;3.13;;
38425;SDS011;24210;51.460;6.148;2024-02-21T11:47:10;11.77;;;4.83;;
38425;SDS011;24210;51.460;6.148;2024-02-21T11:49:36;7.03;;;4.00;;
38425;SDS011;24210;51.460;6.148;2024-02-21T11:52:02;5.70;;;2.50;;
38425;SDS011;24210;51.460;6.148;2024-02-21T11:54:31;10.93;;;4.05;;
38425;SDS011;24210;51.460;6.148;2024-02-21T11:56:56;8.37;;;3.07;;
38425;SDS011;24210;51.460;6.148;2024-02-21T11:59:21;1.63;;;1.03;;
38425;SDS011;24210;51.460;6.148;2024-02-21T12:01:47;8.77;;;3.10;;
38425;SDS011;24210;51.460;6.148;2024-02-21T12:04:13;12.13;;;3.90;;
38425;SDS011;24210;51.460;6.148;2024-02-21T12:06:38;6.67;;;3.47;;
38425;SDS011;24210;51.460;6.148;2024-02-21T12:09:04;7.50;;;3.33;;
38425;SDS011;24210;51.460;6.148;2024-02-21T12:11:32;7.38;;;2.80;;
38425;SDS011;24210;51.460;6.148;2024-02-21T12:14:01;2.77;;;1.53;;
38425;SDS011;24210;51.460;6.148;2024-02-21T12:16:28;4.25;;;1.90;;
38425;SDS011;24210;51.460;6.148;2024-02-21T12:18:56;12.88;;;4.95;;
38425;SDS011;24210;51.460;6.148;2024-02-21T12:21:25;8.03;;;4.20;;
38425;SDS011;24210;51.460;6.148;2024-02-21T12:23:53;6.68;;;2.70;;
38425;SDS011;24210;51.460;6.148;2024-02-21T12:26:18;11.10;;;5.57;;
38425;SDS011;24210;51.460;6.148;2024-02-21T12:28:43;8.60;;;3.97;;
38425;SDS011;24210;51.460;6.148;2024-02-21T12:31:08;11.13;;;5.13;;
38425;SDS011;24210;51.460;6.148;2024-02-21T12:33:33;6.37;;;4.43;;
38425;SDS011;24210;51.460;6.148;2024-02-21T12:36:00;6.70;;;2.72;;
38425;SDS011;24210;51.460;6.148;2024-02-21T12:38:25;9.77;;;4.77;;
38425;SDS011;24210;51.460;6.148;2024-02-21T12:40:50;10.50;;;4.73;;
38425;SDS011;24210;51.460;6.148;2024-02-21T12:43:15;8.30;;;4.27;;
38425;SDS011;24210;51.460;6.148;2024-02-21T12:45:40;13.87;;;5.20;;
38425;SDS011;24210;51.460;6.148;2024-02-21T12:48:06;8.50;;;3.73;;
38425;SDS011;24210;51.460;6.148;2024-02-21T12:50:31;5.33;;;2.07;;
38425;SDS011;24210;51.460;6.148;2024-02-21T12:52:57;5.93;;;2.27;;
38425;SDS011;24210;51.460;6.148;2024-02-21T12:57:48;12.80;;;4.30;;
38425;SDS011;24210;51.460;6.148;2024-02-21T13:00:13;10.00;;;5.47;;
38425;SDS011;24210;51.460;6.148;2024-02-21T13:02:39;6.33;;;2.47;;
38425;SDS011;24210;51.460;6.148;2024-02-21T13:05:11;3.05;;;1.88;;
38425;SDS011;24210;51.460;6.148;2024-02-21T13:07:37;7.43;;;3.30;;
38425;SDS011;24210;51.460;6.148;2024-02-21T13:10:02;5.17;;;3.07;;
38425;SDS011;24210;51.460;6.148;2024-02-21T13:12:28;11.00;;;5.20;;
38425;SDS011;24210;51.460;6.148;2024-02-21T13:17:20;8.57;;;4.30;;
38425;SDS011;24210;51.460;6.148;2024-02-21T13:19:47;10.40;;;3.92;;
38425;SDS011;24210;51.460;6.148;2024-02-21T13:22:12;7.87;;;3.07;;
38425;SDS011;24210;51.460;6.148;2024-02-21T13:24:37;4.23;;;1.60;;
38425;SDS011;24210;51.460;6.148;2024-02-21T13:27:03;4.30;;;1.83;;
38425;SDS011;24210;51.460;6.148;2024-02-21T13:29:28;8.50;;;4.20;;
38425;SDS011;24210;51.460;6.148;2024-02-21T13:31:53;5.03;;;2.17;;
38425;SDS011;24210;51.460;6.148;2024-02-21T13:34:18;6.57;;;2.93;;
38425;SDS011;24210;51.460;6.148;2024-02-21T13:36:44;6.67;;;3.50;;
38425;SDS011;24210;51.460;6.148;2024-02-21T13:39:09;6.63;;;4.67;;
38425;SDS011;24210;51.460;6.148;2024-02-21T13:41:37;12.43;;;4.38;;
38425;SDS011;24210;51.460;6.148;2024-02-21T13:44:03;6.03;;;4.03;;
38425;SDS011;24210;51.460;6.148;2024-02-21T13:46:28;5.90;;;2.47;;
38425;SDS011;24210;51.460;6.148;2024-02-21T13:48:54;6.27;;;2.37;;
38425;SDS011;24210;51.460;6.148;2024-02-21T13:51:26;7.10;;;1.73;;
38425;SDS011;24210;51.460;6.148;2024-02-21T13:53:52;6.73;;;1.73;;
38425;SDS011;24210;51.460;6.148;2024-02-21T13:56:17;7.70;;;3.37;;
38425;SDS011;24210;51.460;6.148;2024-02-21T13:58:42;11.47;;;4.83;;
38425;SDS011;24210;51.460;6.148;2024-02-21T14:01:07;3.77;;;2.30;;
38425;SDS011;24210;51.460;6.148;2024-02-21T14:03:34;3.05;;;1.63;;
38425;SDS011;24210;51.460;6.148;2024-02-21T14:05:59;6.53;;;2.20;;
38425;SDS011;24210;51.460;6.148;2024-02-21T14:08:24;6.50;;;3.37;;
38425;SDS011;24210;51.460;6.148;2024-02-21T14:10:49;4.63;;;2.17;;
38425;SDS011;24210;51.460;6.148;2024-02-21T14:13:15;7.53;;;3.47;;
38425;SDS011;24210;51.460;6.148;2024-02-21T14:15:43;10.52;;;2.80;;
38425;SDS011;24210;51.460;6.148;2024-02-21T14:18:10;2.33;;;1.33;;
38425;SDS011;24210;51.460;6.148;2024-02-21T14:20:36;1.93;;;1.33;;
38425;SDS011;24210;51.460;6.148;2024-02-21T14:23:01;3.63;;;0.97;;
38425;SDS011;24210;51.460;6.148;2024-02-21T14:25:26;5.07;;;1.80;;
38425;SDS011;24210;51.460;6.148;2024-02-21T14:27:51;7.97;;;2.00;;
38425;SDS011;24210;51.460;6.148;2024-02-21T14:30:17;2.53;;;1.37;;
38425;SDS011;24210;51.460;6.148;2024-02-21T14:32:43;2.30;;;1.40;;
38425;SDS011;24210;51.460;6.148;2024-02-21T14:35:08;6.22;;;1.38;;
38425;SDS011;24210;51.460;6.148;2024-02-21T14:37:33;3.67;;;2.40;;
38425;SDS011;24210;51.460;6.148;2024-02-21T14:39:59;2.00;;;1.13;;
38425;SDS011;24210;51.460;6.148;2024-02-21T14:42:25;5.85;;;2.78;;
38425;SDS011;24210;51.460;6.148;2024-02-21T14:44:51;5.53;;;1.40;;
38425;SDS011;24210;51.460;6.148;2024-02-21T14:47:16;3.73;;;1.57;;
38425;SDS011;24210;51.460;6.148;2024-02-21T14:49:41;8.17;;;3.27;;
38425;SDS011;24210;51.460;6.148;2024-02-21T14:52:06;9.63;;;1.97;;
38425;SDS011;24210;51.460;6.148;2024-02-21T14:54:32;1.40;;;1.07;;